Time,TemperatureF,DewpointF,PressureIn,WindDirection,WindDirectionDegrees,WindSpeedMPH,WindSpeedGustMPH,Humidity,HourlyPrecipIn,Conditions,Clouds,dailyrainin,SoftwareType,DateUTC
2015-05-22 00:04:00,50.7,32.7,29.71,ESE,117,6.2,6.2,50,0.00,CLR,FEW,0.00,WeatherDisplay:10.37,2015-05-22 04:04:00,
2015-05-22 00:09:00,50.4,32.4,29.71,ESE,113,3.5,3.5,50,0.00,CLR,FEW,0.00,WeatherDisplay:10.37,2015-05-22 04:09:00,
2015-05-22 00:14:00,50.2,32.3,29.71,ESE,112,6.4,6.4,50,0.00,CLR,FEW,0.00,WeatherDisplay:10.37,2015-05-22 04:14:00,
2015-05-22 00:19:00,49.8,31.9,29.71,ESE,112,5.8,5.8,50,0.00,CLR,FEW,0.00,WeatherDisplay:10.37,2015-05-22 04:19:00,
2015-05-22 00:24:00,49.9,32.0,29.71,SE,128,6.1,6.1,50,0.00,CLR,FEW,0.00,WeatherDisplay:10.37,2015-05-22 04:24:00,
2015-05-22 00:29:00,49.9,32.0,29.71,SE,126,8.1,8.1,50,0.00,CLR,FEW,0.00,WeatherDisplay:10.37,2015-05-22 04:29:00,
2015-05-22 00:34:00,49.8,31.9,29.71,SE,133,4.6,4.6,50,0.00,CLR,FEW,0.00,WeatherDisplay:10.37,2015-05-22 04:34:00,
2015-05-22 00:39:00,49.4,31.5,29.71,ESE,123,6.9,6.9,50,0.00,CLR,FEW,0.00,WeatherDisplay:10.37,2015-05-22 04:39:00,
2015-05-22 00:44:00,49.4,31.5,29.70,SSE,158,6.7,6.7,50,0.00,CLR,FEW,0.00,WeatherDisplay:10.37,2015-05-22 04:44:00,
2015-05-22 00:49:00,49.0,31.2,29.70,SE,126,7.0,7.0,50,0.00,CLR,FEW,0.00,WeatherDisplay:10.37,2015-05-22 04:49:00,
2015-05-22 00:54:00,49.2,31.3,29.70,SSE,162,5.8,5.8,50,0.00,CLR,FEW,0.00,WeatherDisplay:10.37,2015-05-22 04:54:00,
2015-05-22 00:59:00,49.4,31.5,29.70,South,171,6.9,6.9,50,0.00,CLR,FEW,0.00,WeatherDisplay:10.37,2015-05-22 04:59:00,
2015-05-22 01:04:00,48.9,31.1,29.70,SSE,167,2.4,2.4,50,0.00,CLR,FEW,0.00,WeatherDisplay:10.37,2015-05-22 05:04:00,
2015-05-22 01:09:00,48.5,30.7,29.70,South,175,5.8,5.8,50,0.00,CLR,FEW,0.00,WeatherDisplay:10.37,2015-05-22 05:09:00,
2015-05-22 01:14:00,48.0,30.2,29.69,SE,144,3.5,3.5,50,0.00,CLR,FEW,0.00,WeatherDisplay:10.37,2015-05-22 05:14:00,
2015-05-22 01:19:00,47.6,29.9,29.69,SE,130,5.8,5.8,50,0.00,CLR,FEW,0.00,WeatherDisplay:10.37,2015-05-22 05:19:00,
2015-05-22 01:24:00,47.3,29.6,29.69,SSE,164,3.5,3.5,50,0.00,CLR,FEW,0.00,WeatherDisplay:10.37,2015-05-22 05:24:00,
2015-05-22 01:29:00,47.0,29.3,29.69,SSE,158,3.5,3.5,50,0.00,CLR,FEW,0.00,WeatherDisplay:10.37,2015-05-22 05:29:00,
2015-05-22 01:34:00,46.9,29.2,29.69,SSE,151,4.6,4.6,50,0.00,CLR,FEW,0.00,WeatherDisplay:10.37,2015-05-22 05:34:00,
2015-05-22 01:39:00,46.6,28.9,29.69,SSE,157,1.2,0.0,50,0.00,CLR,FEW,0.00,WeatherDisplay:10.37,2015-05-22 05:39:00,
2015-05-22 01:44:00,47.4,29.7,29.69,SE,138,4.6,4.6,50,0.00,CLR,FEW,0.00,WeatherDisplay:10.37,2015-05-22 05:44:00,
2015-05-22 01:49:00,48.1,30.3,29.69,SE,134,4.6,4.6,50,0.00,CLR,FEW,0.00,WeatherDisplay:10.37,2015-05-22 05:49:00,
2015-05-22 01:54:00,48.1,30.3,29.68,SW,229,3.5,3.5,50,0.00,CLR,FEW,0.00,WeatherDisplay:10.37,2015-05-22 05:54:00,
2015-05-22 01:59:00,48.2,30.4,29.69,SW,229,0.0,0.0,50,0.00,CLR,FEW,0.00,WeatherDisplay:10.37,2015-05-22 05:59:00,
2015-05-22 02:04:00,48.1,30.3,29.68,SSE,154,4.9,4.9,50,0.00,CLR,FEW,0.00,WeatherDisplay:10.37,2015-05-22 06:04:00,
2015-05-22 02:09:00,48.1,30.3,29.68,SW,217,2.3,2.3,50,0.00,CLR,FEW,0.00,WeatherDisplay:10.37,2015-05-22 06:09:00,
2015-05-22 02:14:00,48.2,30.4,29.69,SW,217,0.0,0.0,50,0.00,CLR,FEW,0.00,WeatherDisplay:10.37,2015-05-22 06:14:00,
2015-05-22 02:19:00,48.5,30.7,29.68,SSE,147,3.5,3.5,50,0.00,CLR,FEW,0.00,WeatherDisplay:10.37,2015-05-22 06:19:00,
2015-05-22 02:24:00,48.5,30.7,29.68,WSW,240,3.5,3.5,50,0.00,CLR,FEW,0.00,WeatherDisplay:10.37,2015-05-22 06:24:00,
2015-05-22 02:29:00,49.0,31.2,29.68,SSW,193,2.3,2.3,50,0.00,CLR,FEW,0.00,WeatherDisplay:10.37,2015-05-22 06:29:00,
2015-05-22 02:34:00,48.8,31.0,29.68,South,186,1.2,1.2,50,0.00,CLR,FEW,0.00,WeatherDisplay:10.37,2015-05-22 06:34:00,
2015-05-22 02:39:00,48.9,31.1,29.68,SW,224,3.5,3.5,50,0.00,CLR,FEW,0.00,WeatherDisplay:10.37,2015-05-22 06:39:00,
2015-05-22 02:44:00,48.9,31.1,29.68,South,189,2.8,2.8,50,0.00,CLR,FEW,0.00,WeatherDisplay:10.37,2015-05-22 06:44:00,
2015-05-22 02:49:00,49.1,31.2,29.68,WSW,239,3.5,3.5,50,0.00,CLR,FEW,0.00,WeatherDisplay:10.37,2015-05-22 06:49:00,
2015-05-22 02:54:00,49.2,31.3,29.68,WSW,239,5.7,5.7,50,0.00,CLR,FEW,0.00,WeatherDisplay:10.37,2015-05-22 06:54:00,
2015-05-22 02:59:00,49.3,31.4,29.68,WSW,237,4.5,4.5,50,0.00,CLR,FEW,0.00,WeatherDisplay:10.37,2015-05-22 06:59:00,
2015-05-22 03:04:00,49.5,31.6,29.68,SSW,210,4.6,4.6,50,0.00,CLR,FEW,0.00,WeatherDisplay:10.37,2015-05-22 07:04:00,
2015-05-22 03:09:00,49.6,31.7,29.68,South,182,3.2,3.2,50,0.00,CLR,FEW,0.00,WeatherDisplay:10.37,2015-05-22 07:09:00,
2015-05-22 03:14:00,49.8,31.9,29.68,SSW,193,3.5,3.5,50,0.00,CLR,FEW,0.00,WeatherDisplay:10.37,2015-05-22 07:14:00,
2015-05-22 03:19:00,49.8,31.9,29.68,SE,127,2.3,2.3,50,0.00,CLR,FEW,0.00,WeatherDisplay:10.37,2015-05-22 07:19:00,
2015-05-22 03:24:00,49.9,32.0,29.68,ESE,116,4.6,4.6,50,0.00,CLR,FEW,0.00,WeatherDisplay:10.37,2015-05-22 07:24:00,
2015-05-22 03:29:00,49.9,32.0,29.68,SSW,196,2.7,2.7,50,0.00,CLR,FEW,0.00,WeatherDisplay:10.37,2015-05-22 07:29:00,
2015-05-22 03:34:00,49.9,32.0,29.68,WSW,244,7.0,7.0,50,0.00,CLR,FEW,0.00,WeatherDisplay:10.37,2015-05-22 07:34:00,
2015-05-22 03:39:00,50.0,32.1,29.68,SE,133,4.6,4.6,50,0.00,CLR,FEW,0.00,WeatherDisplay:10.37,2015-05-22 07:39:00,
2015-05-22 03:44:00,50.4,32.4,29.68,SSW,212,6.2,6.2,50,0.00,CLR,FEW,0.00,WeatherDisplay:10.37,2015-05-22 07:44:00,
2015-05-22 03:49:00,50.4,32.4,29.68,SSW,199,4.6,4.6,50,0.00,CLR,FEW,0.00,WeatherDisplay:10.37,2015-05-22 07:49:00,
2015-05-22 03:54:00,50.8,32.8,29.68,SW,234,4.6,4.6,50,0.00,CLR,FEW,0.00,WeatherDisplay:10.37,2015-05-22 07:54:00,
2015-05-22 04:00:00,50.7,32.7,29.68,SW,217,5.8,5.8,50,0.00,CLR,FEW,0.00,WeatherDisplay:10.37,2015-05-22 08:00:00,
2015-05-22 04:05:00,51.0,33.0,29.68,SE,131,3.5,3.5,50,0.00,CLR,FEW,0.00,WeatherDisplay:10.37,2015-05-22 08:05:00,
2015-05-22 04:10:00,50.8,32.8,29.68,SE,131,3.0,3.0,50,0.00,CLR,FEW,0.00,WeatherDisplay:10.37,2015-05-22 08:10:00,
2015-05-22 04:15:00,50.9,32.9,29.68,SW,216,5.8,5.8,50,0.00,CLR,FEW,0.00,WeatherDisplay:10.37,2015-05-22 08:15:00,
2015-05-22 04:20:00,51.1,33.1,29.68,South,191,4.6,4.6,50,0.00,CLR,FEW,0.00,WeatherDisplay:10.37,2015-05-22 08:20:00,
2015-05-22 04:25:00,51.0,33.0,29.68,WSW,239,3.5,3.5,50,0.00,CLR,FEW,0.00,WeatherDisplay:10.37,2015-05-22 08:25:00,
2015-05-22 04:30:00,51.0,33.0,29.68,WNW,298,3.5,3.5,50,0.00,CLR,FEW,0.00,WeatherDisplay:10.37,2015-05-22 08:30:00,